createdAt,value
2023-03-20T00:02:01.558Z,31.95
2023-03-20T00:04:29.731Z,34.60
2023-03-20T00:06:56.811Z,36.30
2023-03-20T00:09:25.632Z,37.88
2023-03-20T00:11:55.616Z,30.50
2023-03-20T00:14:24.715Z,36.20
2023-03-20T00:16:52.327Z,31.65
2023-03-20T00:19:23.387Z,36.72
2023-03-20T00:21:51.609Z,37.25
2023-03-20T00:24:18.913Z,35.22
2023-03-20T00:26:47.399Z,34.13
2023-03-20T00:29:34.396Z,29.75
2023-03-20T00:32:01.552Z,38.90
2023-03-20T00:34:29.675Z,37.75
2023-03-20T00:36:58.043Z,35.30
2023-03-20T00:39:25.073Z,31.85
2023-03-20T00:41:53.802Z,39.58
2023-03-20T00:44:34.958Z,35.40
2023-03-20T00:47:12.025Z,31.23
2023-03-20T00:49:39.343Z,35.58
2023-03-20T00:52:06.386Z,35.60
2023-03-20T00:54:33.212Z,33.55
2023-03-20T00:57:04.187Z,33.47
2023-03-20T00:59:35.017Z,36.22
2023-03-20T01:02:02.844Z,36.78
2023-03-20T01:04:36.916Z,36.22
2023-03-20T01:07:04.864Z,32.25
2023-03-20T01:09:31.844Z,35.58
2023-03-20T01:12:00.341Z,33.35
2023-03-20T01:14:27.675Z,31.15
2023-03-20T01:16:54.576Z,30.10
2023-03-20T01:19:21.773Z,39.63
2023-03-20T01:21:48.679Z,34.35
2023-03-20T01:24:15.587Z,34.20
2023-03-20T01:26:44.139Z,30.95
2023-03-20T01:29:16.944Z,33.25
2023-03-20T01:31:44.040Z,31.17
2023-03-20T01:34:12.127Z,31.52
2023-03-20T01:36:40.401Z,30.17
2023-03-20T01:39:07.450Z,37.28
2023-03-20T01:41:34.653Z,29.58
2023-03-20T01:44:17.426Z,32.95
2023-03-20T01:46:44.997Z,30.63
2023-03-20T01:49:21.216Z,28.65
2023-03-20T01:51:49.339Z,29.55
2023-03-20T01:54:29.905Z,33.53
2023-03-20T01:57:02.568Z,26.73
2023-03-20T01:59:32.176Z,33.78
2023-03-20T02:01:59.558Z,31.67
2023-03-20T02:04:31.479Z,30.33
2023-03-20T02:06:58.388Z,32.22
2023-03-20T02:09:25.280Z,29.20
2023-03-20T02:11:53.915Z,31.20
2023-03-20T02:14:22.242Z,29.58
2023-03-20T02:16:49.302Z,29.65
2023-03-20T02:19:32.004Z,29.92
2023-03-20T02:22:19.060Z,28.23
2023-03-20T02:24:51.803Z,35.10
2023-03-20T02:27:24.726Z,28.90
2023-03-20T02:30:16.127Z,27.00
2023-03-20T02:33:01.500Z,29.15
2023-03-20T02:35:53.737Z,27.63
2023-03-20T02:38:20.774Z,29.95
2023-03-20T02:41:12.345Z,29.58
2023-03-20T02:43:50.684Z,31.23
2023-03-20T02:46:58.849Z,29.20
2023-03-20T02:49:25.728Z,34.72
2023-03-20T02:52:02.419Z,25.80
2023-03-20T02:54:59.916Z,31.55
2023-03-20T02:57:34.440Z,22.55
2023-03-20T03:00:12.329Z,33.63
2023-03-20T03:02:52.361Z,30.25
2023-03-20T03:05:27.686Z,38.58
2023-03-20T03:07:59.840Z,30.73
2023-03-20T03:10:36.982Z,30.75
2023-03-20T03:13:11.650Z,31.75
2023-03-20T03:15:42.953Z,32.30
2023-03-20T03:18:17.667Z,27.55
2023-03-20T03:20:47.099Z,31.88
2023-03-20T03:23:23.763Z,31.00
2023-03-20T03:25:51.789Z,32.40
2023-03-20T03:28:39.777Z,33.05
2023-03-20T03:31:12.284Z,32.33
2023-03-20T03:33:47.310Z,35.50
2023-03-20T03:36:25.520Z,34.97
2023-03-20T03:39:05.134Z,31.80
2023-03-20T03:41:40.763Z,31.38
2023-03-20T03:44:23.241Z,32.72
2023-03-20T03:47:28.121Z,30.27
2023-03-20T03:50:03.439Z,32.67
2023-03-20T03:52:32.883Z,33.97
2023-03-20T03:55:10.490Z,35.58
2023-03-20T03:57:49.420Z,32.60
2023-03-20T04:00:20.778Z,44.15
2023-03-20T04:02:51.253Z,34.72
2023-03-20T04:05:20.987Z,33.60
2023-03-20T04:07:52.796Z,31.63
2023-03-20T04:10:19.748Z,32.30
2023-03-20T04:12:47.153Z,26.88
2023-03-20T04:15:16.123Z,30.48
2023-03-20T04:17:43.347Z,31.38
2023-03-20T04:20:11.384Z,34.22
2023-03-20T04:22:38.581Z,28.73
2023-03-20T04:25:07.928Z,36.25
2023-03-20T04:27:34.950Z,35.58
2023-03-20T04:30:01.984Z,32.35
2023-03-20T04:32:28.795Z,36.17
2023-03-20T04:34:55.747Z,31.02
2023-03-20T04:37:22.757Z,30.08
2023-03-20T04:39:49.628Z,28.27
2023-03-20T04:42:16.540Z,27.50
2023-03-20T04:44:43.480Z,31.90
2023-03-20T04:47:10.425Z,30.67
2023-03-20T04:49:37.291Z,27.70
2023-03-20T04:52:04.712Z,33.28
2023-03-20T04:54:31.827Z,34.67
2023-03-20T04:56:58.699Z,32.50
2023-03-20T04:59:25.703Z,33.92
2023-03-20T05:01:52.538Z,30.92
2023-03-20T05:04:19.507Z,30.23
2023-03-20T05:06:49.295Z,28.75
2023-03-20T05:09:16.937Z,33.15
2023-03-20T05:11:43.836Z,32.45
2023-03-20T05:14:12.088Z,31.13
2023-03-20T05:16:39.470Z,37.55
2023-03-20T05:19:06.533Z,23.73
2023-03-20T05:21:33.458Z,33.83
2023-03-20T05:24:00.526Z,32.45
2023-03-20T05:26:27.382Z,30.67
2023-03-20T05:28:54.277Z,33.17
2023-03-20T05:31:21.543Z,30.23
2023-03-20T05:33:48.441Z,27.92
2023-03-20T05:36:15.559Z,31.02
2023-03-20T05:38:42.391Z,30.50
2023-03-20T05:41:09.245Z,30.20
2023-03-20T05:43:36.546Z,25.15
2023-03-20T05:46:03.454Z,32.70
2023-03-20T05:48:30.711Z,25.00
2023-03-20T05:50:58.003Z,32.08
2023-03-20T05:53:24.818Z,29.08
2023-03-20T05:55:51.656Z,34.33
2023-03-20T05:58:18.511Z,30.92
2023-03-20T06:00:45.462Z,29.30
2023-03-20T06:03:12.385Z,32.97
2023-03-20T06:05:39.381Z,26.35
2023-03-20T06:08:06.197Z,27.00
2023-03-20T06:10:33.161Z,30.10
2023-03-20T06:13:01.250Z,26.42
2023-03-20T06:15:28.683Z,27.92
2023-03-20T06:17:56.644Z,23.42
2023-03-20T06:20:24.390Z,31.65
2023-03-20T06:22:51.420Z,25.48
2023-03-20T06:25:19.321Z,25.67
2023-03-20T06:27:47.992Z,30.45
2023-03-20T06:30:16.241Z,26.23
2023-03-20T06:32:43.495Z,21.92
2023-03-20T06:35:11.252Z,33.25
2023-03-20T06:37:38.272Z,20.73
2023-03-20T06:40:06.709Z,27.55
2023-03-20T06:42:33.937Z,29.38
2023-03-20T06:45:00.880Z,32.42
2023-03-20T06:47:27.692Z,27.98
2023-03-20T06:49:54.603Z,27.00
2023-03-20T06:52:25.245Z,33.03
2023-03-20T06:54:52.209Z,29.95
2023-03-20T06:57:19.449Z,24.77
2023-03-20T06:59:46.298Z,27.88
2023-03-20T07:02:13.457Z,26.35
2023-03-20T07:04:41.237Z,26.33
2023-03-20T07:07:08.589Z,26.58
2023-03-20T07:09:35.955Z,26.30
2023-03-20T07:12:04.764Z,29.77
2023-03-20T07:14:31.773Z,27.80
2023-03-20T07:16:58.774Z,31.13
2023-03-20T07:19:26.400Z,27.88
2023-03-20T07:21:59.463Z,32.20
2023-03-20T07:24:26.558Z,30.67
2023-03-20T07:26:53.550Z,33.75
2023-03-20T07:29:20.518Z,28.13
2023-03-20T07:31:47.503Z,26.65
2023-03-20T07:34:14.534Z,22.77
2023-03-20T07:36:42.080Z,25.65
2023-03-20T07:39:09.626Z,28.85
2023-03-20T07:41:36.857Z,23.48
2023-03-20T07:44:03.796Z,20.70
2023-03-20T07:46:31.009Z,20.23
2023-03-20T07:48:58.367Z,34.70
2023-03-20T07:51:25.673Z,25.30
2023-03-20T07:53:52.604Z,20.42
2023-03-20T07:56:19.566Z,22.20
2023-03-20T07:58:46.451Z,23.63
2023-03-20T08:01:13.324Z,25.13
2023-03-20T08:03:40.554Z,21.83
2023-03-20T08:06:09.698Z,27.13
2023-03-20T08:08:36.904Z,16.20
2023-03-20T08:11:03.962Z,23.27
2023-03-20T08:13:31.002Z,17.08
2023-03-20T08:15:58.314Z,18.55
2023-03-20T08:18:25.336Z,24.73
2023-03-20T08:20:52.352Z,20.77
2023-03-20T08:23:20.900Z,19.88
2023-03-20T08:25:52.425Z,18.60
2023-03-20T08:28:19.368Z,27.50
2023-03-20T08:30:46.298Z,19.77
2023-03-20T08:33:14.580Z,27.77
2023-03-20T08:35:41.549Z,22.30
2023-03-20T08:38:14.185Z,24.40
2023-03-20T08:40:42.342Z,24.63
2023-03-20T08:43:09.704Z,15.77
2023-03-20T08:45:36.910Z,25.13
2023-03-20T08:48:04.112Z,17.88
2023-03-20T08:50:32.304Z,23.75
2023-03-20T08:52:59.249Z,22.70
2023-03-20T08:55:26.958Z,17.52
2023-03-20T08:57:54.700Z,24.08
2023-03-20T09:00:22.622Z,14.25
2023-03-20T09:02:50.954Z,20.17
2023-03-20T09:05:18.129Z,17.95
2023-03-20T09:07:45.137Z,23.52
2023-03-20T09:10:12.762Z,17.63
2023-03-20T09:12:40.032Z,22.10
2023-03-20T09:15:08.193Z,18.52
2023-03-20T09:17:35.151Z,19.55
2023-03-20T09:20:02.126Z,19.33
2023-03-20T09:22:29.099Z,15.63
2023-03-20T09:24:56.098Z,23.27
2023-03-20T09:27:22.940Z,17.05
2023-03-20T09:29:49.862Z,23.92
2023-03-20T09:32:16.937Z,21.77
2023-03-20T09:34:43.865Z,16.45
2023-03-20T09:37:11.069Z,19.50
2023-03-20T09:39:37.964Z,16.42
2023-03-20T09:42:30.950Z,16.45
2023-03-20T09:45:13.199Z,17.27
2023-03-20T09:47:50.948Z,18.67
2023-03-20T09:50:43.074Z,13.90
2023-03-20T09:53:31.367Z,20.45
2023-03-20T09:55:59.346Z,17.85
2023-03-20T09:58:37.760Z,17.85
2023-03-20T10:01:06.897Z,24.23
2023-03-20T10:03:42.541Z,16.65
2023-03-20T10:06:14.984Z,16.27
2023-03-20T10:08:43.097Z,14.65
2023-03-20T10:11:19.052Z,20.48
2023-03-20T10:13:49.277Z,21.77
2023-03-20T10:16:32.283Z,19.60
2023-03-20T10:19:07.971Z,16.15
2023-03-20T10:21:41.604Z,21.13
2023-03-20T10:24:27.432Z,21.23
2023-03-20T10:29:36.705Z,22.15
2023-03-20T10:32:08.784Z,20.85
2023-03-20T10:35:11.526Z,19.00
2023-03-20T10:37:47.882Z,18.67
2023-03-20T10:40:36.636Z,19.30
2023-03-20T10:43:14.745Z,19.27
2023-03-20T10:45:46.871Z,17.05
2023-03-20T10:48:22.929Z,17.05
2023-03-20T10:50:59.885Z,21.55
2023-03-20T10:53:58.259Z,15.35
2023-03-20T10:56:39.288Z,21.17
2023-03-20T10:59:20.123Z,18.80
2023-03-20T11:01:47.061Z,23.92
2023-03-20T11:04:13.915Z,23.40
2023-03-20T11:06:57.973Z,21.38
2023-03-20T11:09:26.957Z,19.10
2023-03-20T11:11:57.861Z,17.85
2023-03-20T11:14:27.231Z,23.08
2023-03-20T11:16:56.547Z,23.15
2023-03-20T11:19:24.243Z,22.35
2023-03-20T11:21:57.203Z,21.88
2023-03-20T11:24:37.903Z,20.73
2023-03-20T11:27:14.552Z,17.88
2023-03-20T11:29:45.615Z,15.52
2023-03-20T11:32:28.769Z,21.48
2023-03-20T11:34:59.384Z,18.73
2023-03-20T11:37:34.223Z,19.83
2023-03-20T11:40:25.707Z,19.35
2023-03-20T11:42:55.534Z,15.65
2023-03-20T11:45:23.576Z,17.63
2023-03-20T11:47:57.091Z,17.42
2023-03-20T11:50:35.422Z,19.58
2023-03-20T11:53:21.085Z,15.68
2023-03-20T11:56:03.323Z,19.33
2023-03-20T11:58:30.720Z,23.85
2023-03-20T12:00:58.207Z,20.90
2023-03-20T12:03:52.181Z,18.42
2023-03-20T12:06:28.082Z,15.45
2023-03-20T12:09:04.839Z,19.60
2023-03-20T12:11:48.902Z,17.88
2023-03-20T12:14:40.097Z,17.38
2023-03-20T12:17:15.978Z,20.80
2023-03-20T12:19:45.378Z,22.35
2023-03-20T12:22:21.686Z,20.42
2023-03-20T12:25:24.217Z,21.58
2023-03-20T12:28:37.370Z,14.05
2023-03-20T12:31:04.736Z,17.38
2023-03-20T12:33:48.459Z,19.42
2023-03-20T12:36:18.719Z,17.88
2023-03-20T12:38:46.354Z,15.77
2023-03-20T12:41:30.966Z,26.15
2023-03-20T12:44:21.376Z,22.60
2023-03-20T12:46:51.226Z,16.70
2023-03-20T12:49:36.336Z,25.15
2023-03-20T12:52:09.050Z,21.05
2023-03-20T12:55:01.580Z,18.77
2023-03-20T12:57:50.033Z,18.67
2023-03-20T13:00:25.015Z,23.60
2023-03-20T13:03:07.019Z,22.45
2023-03-20T13:05:48.448Z,23.27
2023-03-20T13:08:22.378Z,17.75
2023-03-20T13:11:11.059Z,21.85
2023-03-20T13:13:54.575Z,23.85
2023-03-20T13:16:41.684Z,16.08
2023-03-20T13:19:14.688Z,18.60
2023-03-20T13:22:01.884Z,19.95
2023-03-20T13:24:38.306Z,21.25
2023-03-20T13:27:23.833Z,21.63
2023-03-20T13:29:56.669Z,22.42
2023-03-20T13:32:56.177Z,18.02
2023-03-20T13:35:41.049Z,20.40
2023-03-20T13:38:14.870Z,18.98
2023-03-20T13:40:44.235Z,21.05
2023-03-20T13:43:54.653Z,19.77
2023-03-20T13:46:29.162Z,19.60
2023-03-20T13:49:02.606Z,17.65
2023-03-20T13:51:57.565Z,18.70
2023-03-20T13:55:01.876Z,22.98
2023-03-20T13:57:40.890Z,23.15
2023-03-20T14:00:34.088Z,15.88
2023-03-20T14:03:12.304Z,19.85
2023-03-20T14:05:41.620Z,23.05
2023-03-20T14:08:27.290Z,20.88
2023-03-20T14:11:08.909Z,26.10
2023-03-20T14:13:36.548Z,19.83
2023-03-20T14:16:08.516Z,24.67
2023-03-20T14:18:36.577Z,18.67
2023-03-20T14:21:11.773Z,22.75
2023-03-20T14:23:42.975Z,17.80
2023-03-20T14:26:36.085Z,25.77
2023-03-20T14:29:11.987Z,19.92
2023-03-20T14:31:42.423Z,19.63
2023-03-20T14:34:12.355Z,24.05
2023-03-20T14:37:02.162Z,23.83
2023-03-20T14:39:54.013Z,20.10
2023-03-20T14:42:31.816Z,22.85
2023-03-20T14:45:13.894Z,22.20
2023-03-20T14:48:07.121Z,23.50
2023-03-20T14:50:33.956Z,21.55
2023-03-20T14:53:18.673Z,28.67
2023-03-20T14:55:57.663Z,28.40
2023-03-20T14:58:49.144Z,24.33
2023-03-20T15:01:22.197Z,19.52
2023-03-20T15:04:07.002Z,22.90
2023-03-20T15:06:35.691Z,24.40
2023-03-20T15:09:08.157Z,21.50
2023-03-20T15:11:35.692Z,24.48
2023-03-20T15:14:06.326Z,22.58
2023-03-20T15:16:37.036Z,31.17
2023-03-20T15:19:19.197Z,28.40
2023-03-20T15:21:48.248Z,27.98
2023-03-20T15:24:24.232Z,29.77
2023-03-20T15:27:02.023Z,23.42
2023-03-20T15:29:31.640Z,27.20
2023-03-20T15:32:13.375Z,26.45
2023-03-20T15:34:42.265Z,24.23
2023-03-20T15:37:17.286Z,29.38
2023-03-20T15:39:51.137Z,30.52
2023-03-20T15:42:22.046Z,25.02
2023-03-20T15:44:52.205Z,23.35
2023-03-20T15:47:24.547Z,22.92
2023-03-20T15:49:56.956Z,22.85
2023-03-20T15:52:34.195Z,24.15
2023-03-20T15:55:11.736Z,29.48
2023-03-20T15:57:41.264Z,25.42
2023-03-20T16:00:15.539Z,26.80
2023-03-20T16:02:44.709Z,23.63
2023-03-20T16:05:15.717Z,24.33
2023-03-20T16:07:43.136Z,23.27
2023-03-20T16:10:36.711Z,25.65
2023-03-20T16:13:06.642Z,29.58
2023-03-20T16:15:34.189Z,23.02
2023-03-20T16:18:04.679Z,24.60
2023-03-20T16:20:38.286Z,22.45
2023-03-20T16:23:08.257Z,20.75
2023-03-20T16:25:37.381Z,24.05
2023-03-20T16:28:07.216Z,24.83
2023-03-20T16:30:36.097Z,20.48
2023-03-20T16:33:12.384Z,18.77
2023-03-20T16:38:29.369Z,24.25
2023-03-20T16:41:13.199Z,26.35
2023-03-20T16:43:40.690Z,21.77
2023-03-20T16:46:08.232Z,30.52
2023-03-20T16:48:39.268Z,22.75
2023-03-20T16:51:22.838Z,21.15
2023-03-20T16:53:52.246Z,28.60
2023-03-20T16:56:38.503Z,25.10
2023-03-20T16:59:10.209Z,27.60
2023-03-20T17:01:41.932Z,24.88
2023-03-20T17:04:21.182Z,27.30
2023-03-20T17:06:52.513Z,31.35
2023-03-20T17:09:24.761Z,24.23
2023-03-20T17:12:11.869Z,22.90
2023-03-20T17:14:40.800Z,21.10
2023-03-20T17:17:16.927Z,26.20
2023-03-20T17:19:45.460Z,27.00
2023-03-20T17:22:18.664Z,22.40
2023-03-20T17:24:45.771Z,31.02
2023-03-20T17:27:13.647Z,33.13
2023-03-20T17:29:41.676Z,23.85
2023-03-20T17:32:13.434Z,26.33
2023-03-20T17:34:40.898Z,28.67
2023-03-20T17:37:13.582Z,31.17
2023-03-20T17:39:40.986Z,21.20
2023-03-20T17:42:18.904Z,25.05
2023-03-20T17:44:47.146Z,30.77
2023-03-20T17:47:22.520Z,23.63
2023-03-20T17:49:52.002Z,24.90
2023-03-20T17:52:21.174Z,28.40
2023-03-20T17:54:48.134Z,27.13
2023-03-20T17:57:22.909Z,26.50
2023-03-20T17:59:50.240Z,25.58
2023-03-20T18:02:20.982Z,23.33
2023-03-20T18:04:48.838Z,30.52
2023-03-20T18:07:17.415Z,28.63
2023-03-20T18:09:44.587Z,30.33
2023-03-20T18:12:15.616Z,24.25
2023-03-20T18:14:43.750Z,28.95
2023-03-20T18:17:15.402Z,20.60
2023-03-20T18:19:43.328Z,20.42
2023-03-20T18:22:10.669Z,17.23
2023-03-20T18:24:40.054Z,24.75
2023-03-20T18:27:07.549Z,21.67
2023-03-20T18:29:34.491Z,20.23
2023-03-20T18:32:01.464Z,20.02
2023-03-20T18:34:28.398Z,22.77
2023-03-20T18:36:55.339Z,18.60
2023-03-20T18:39:24.723Z,26.02
2023-03-20T18:41:52.419Z,18.65
2023-03-20T18:44:19.370Z,17.25
2023-03-20T18:46:46.360Z,18.70
2023-03-20T18:49:18.244Z,16.73
2023-03-20T18:51:46.124Z,16.92
2023-03-20T18:54:13.746Z,21.70
2023-03-20T18:56:41.144Z,18.40
2023-03-20T18:59:12.415Z,20.27
2023-03-20T19:01:39.656Z,18.55
2023-03-20T19:04:06.764Z,22.35
2023-03-20T19:06:34.013Z,18.15
2023-03-20T19:09:05.003Z,22.30
2023-03-20T19:11:31.865Z,22.27
2023-03-20T19:13:58.821Z,22.63
2023-03-20T19:16:29.122Z,15.63
2023-03-20T19:18:59.048Z,20.85
2023-03-20T19:21:26.668Z,17.02
2023-03-20T19:24:04.974Z,19.25
2023-03-20T19:26:33.730Z,22.77
2023-03-20T19:29:02.863Z,16.05
2023-03-20T19:31:30.015Z,20.20
2023-03-20T19:33:57.076Z,18.85
2023-03-20T19:36:36.353Z,22.50
2023-03-20T19:39:05.864Z,17.65
2023-03-20T19:41:33.211Z,20.05
2023-03-20T19:44:01.557Z,20.92
2023-03-20T19:46:39.789Z,19.00
2023-03-20T19:49:19.548Z,18.98
2023-03-20T19:51:48.076Z,15.15
2023-03-20T19:54:15.128Z,22.75
2023-03-20T19:56:42.165Z,15.77
2023-03-20T19:59:09.183Z,18.38
2023-03-20T20:01:36.543Z,18.55
2023-03-20T20:04:04.187Z,21.30
2023-03-20T20:06:32.915Z,25.00
2023-03-20T20:09:01.509Z,22.25
2023-03-20T20:11:28.961Z,18.60
2023-03-20T20:14:14.473Z,18.63
2023-03-20T20:16:43.230Z,16.58
2023-03-20T20:19:10.922Z,28.10
2023-03-20T20:24:25.106Z,15.98
2023-03-20T20:26:56.817Z,15.18
2023-03-20T20:29:30.403Z,23.75
2023-03-20T20:31:59.042Z,23.05
2023-03-20T20:37:51.649Z,18.85
2023-03-20T20:40:00.359Z,17.50
2023-03-20T20:42:27.440Z,17.00
2023-03-20T20:44:54.309Z,19.38
2023-03-20T20:47:21.448Z,14.48
2023-03-20T20:49:48.766Z,15.88
2023-03-20T20:52:16.180Z,19.00
2023-03-20T20:54:43.187Z,17.00
2023-03-20T20:57:12.060Z,14.07
2023-03-20T20:59:40.420Z,17.77
2023-03-20T21:02:11.683Z,16.50
2023-03-20T21:04:42.700Z,17.75
2023-03-20T21:07:13.699Z,16.27
2023-03-20T21:09:41.109Z,20.02
2023-03-20T21:12:10.609Z,17.70
2023-03-20T21:14:38.150Z,26.75
2023-03-20T21:17:06.115Z,17.00
2023-03-20T21:19:36.080Z,18.75
2023-03-20T21:22:04.456Z,19.05
2023-03-20T21:24:34.510Z,19.40
2023-03-20T21:27:06.948Z,18.45
2023-03-20T21:29:34.532Z,17.70
2023-03-20T21:32:01.580Z,18.70
2023-03-20T21:34:31.861Z,20.30
2023-03-20T21:37:00.084Z,21.83
2023-03-20T21:39:30.510Z,22.00
2023-03-20T21:41:58.340Z,27.42
2023-03-20T21:45:08.895Z,20.77
2023-03-20T21:48:17.362Z,22.27
2023-03-20T22:04:54.792Z,29.77
2023-03-20T22:10:08.494Z,27.17
2023-03-20T22:13:12.417Z,29.75
2023-03-20T22:15:46.391Z,29.98
2023-03-20T22:18:42.400Z,35.42
2023-03-20T22:21:42.539Z,29.17
2023-03-20T22:29:45.253Z,29.17
2023-03-20T22:32:35.036Z,38.00
2023-03-20T22:35:27.589Z,30.23
2023-03-20T22:46:07.777Z,33.53
2023-03-20T22:48:40.390Z,31.05
2023-03-20T22:51:07.958Z,36.78
2023-03-20T22:53:35.054Z,33.78
2023-03-20T22:56:02.148Z,27.65
2023-03-20T22:58:29.063Z,27.08
2023-03-20T23:00:57.185Z,31.23
2023-03-20T23:03:42.196Z,32.33
2023-03-20T23:06:19.826Z,26.50
2023-03-20T23:08:52.340Z,33.17
2023-03-20T23:11:23.946Z,30.43
2023-03-20T23:13:51.653Z,28.98
2023-03-20T23:16:19.468Z,30.10
2023-03-20T23:18:46.472Z,35.67
2023-03-20T23:21:13.509Z,27.33
2023-03-20T23:23:40.567Z,31.23
2023-03-20T23:26:13.821Z,27.10
2023-03-20T23:28:42.658Z,28.48
2023-03-20T23:31:15.524Z,25.58
2023-03-20T23:33:45.085Z,25.27
2023-03-20T23:36:24.737Z,26.90
2023-03-20T23:38:58.967Z,26.52
2023-03-20T23:41:53.646Z,22.85
2023-03-20T23:44:12.968Z,22.48
2023-03-20T23:46:39.878Z,21.63
2023-03-20T23:49:06.962Z,23.23
2023-03-20T23:51:33.916Z,22.77
2023-03-20T23:54:00.989Z,22.20
2023-03-20T23:56:27.871Z,19.45
2023-03-20T23:59:01.136Z,24.13
